Time;durP1;ratioP1;P1;durP2;ratioP2;P2;SDS_P1;SDS_P2;PMS_P1;PMS_P2;Temp;Humidity;BMP_temperature;BMP_pressure;BME280_temperature;BME280_humidity;BME280_pressure;Samples;Min_cycle;Max_cycle;Signal;HPM_P1;HPM_P2
2022/12/31 00:02:05;;;;;;;64.70;5.63;;;13.50;99.90;;;;;;4906168;29;20173;-85
2022/12/31 00:04:31;;;;;;;66.80;7.03;;;13.50;99.90;;;;;;4904879;29;20170;-85
2022/12/31 00:06:57;;;;;;;66.00;6.60;;;13.50;99.90;;;;;;4905408;29;20181;-85
2022/12/31 00:09:25;;;;;;;66.30;5.87;;;13.50;99.90;;;;;;4905513;29;20438;-85
2022/12/31 00:11:51;;;;;;;65.17;6.50;;;13.50;99.90;;;;;;4905107;29;20257;-85
2022/12/31 00:14:17;;;;;;;65.50;6.67;;;13.50;99.90;;;;;;4905023;29;20448;-85
2022/12/31 00:16:43;;;;;;;65.40;6.27;;;13.50;99.90;;;;;;4903469;29;20207;-85
2022/12/31 00:19:10;;;;;;;65.47;6.47;;;13.50;99.90;;;;;;4904780;29;20468;-85
2022/12/31 00:21:36;;;;;;;64.40;5.77;;;13.60;99.90;;;;;;4903326;29;20574;-85
2022/12/31 00:24:04;;;;;;;65.57;6.43;;;13.60;99.90;;;;;;4902452;29;20569;-85
2022/12/31 00:26:31;;;;;;;64.33;5.63;;;13.70;99.90;;;;;;4904753;29;20429;-85
2022/12/31 00:28:58;;;;;;;64.70;5.53;;;13.70;99.90;;;;;;4905281;29;20894;-85
2022/12/31 00:31:28;;;;;;;65.10;5.55;;;13.70;99.90;;;;;;4903864;29;20445;-85
2022/12/31 00:33:55;;;;;;;64.68;5.50;;;13.80;99.90;;;;;;4904126;29;20221;-85
2022/12/31 00:36:27;;;;;;;64.43;6.00;;;13.80;99.90;;;;;;4904771;29;20222;-85
2022/12/31 00:38:56;;;;;;;64.73;5.73;;;13.80;99.90;;;;;;4904674;29;21024;-85
2022/12/31 00:41:22;;;;;;;64.57;5.27;;;13.80;99.90;;;;;;4903883;29;20434;-85
2022/12/31 00:43:49;;;;;;;64.93;5.63;;;13.80;99.90;;;;;;4904168;29;20441;-85
2022/12/31 00:46:18;;;;;;;64.90;6.10;;;13.90;99.90;;;;;;4905080;29;20193;-86
2022/12/31 00:48:47;;;;;;;64.43;5.63;;;13.90;99.90;;;;;;4903928;29;20170;-85
2022/12/31 00:51:15;;;;;;;65.17;5.87;;;13.90;99.90;;;;;;4904134;29;20445;-86
2022/12/31 00:53:41;;;;;;;64.57;5.90;;;13.90;99.90;;;;;;4903438;29;20808;-85
2022/12/31 00:56:15;;;;;;;65.30;6.33;;;13.90;99.90;;;;;;4905175;29;20510;-86
2022/12/31 00:58:42;;;;;;;64.85;6.13;;;13.90;99.90;;;;;;4904607;29;20448;-85
2022/12/31 01:01:20;;;;;;;65.13;6.30;;;14.00;99.90;;;;;;4905095;29;20563;-86
2022/12/31 01:03:48;;;;;;;65.10;5.90;;;14.00;99.90;;;;;;4904535;29;20740;-85
2022/12/31 01:06:15;;;;;;;64.87;6.00;;;14.00;99.90;;;;;;4903731;29;20414;-85
2022/12/31 01:08:40;;;;;;;65.13;6.43;;;14.00;99.90;;;;;;4905370;29;20417;-86
2022/12/31 01:11:19;;;;;;;66.00;6.57;;;14.10;99.90;;;;;;4903554;29;20434;-86
2022/12/31 01:13:50;;;;;;;65.40;6.30;;;14.10;99.90;;;;;;4905296;29;20165;-85
2022/12/31 01:16:18;;;;;;;66.23;6.47;;;14.10;99.90;;;;;;4905461;29;20410;-87
2022/12/31 01:18:44;;;;;;;64.70;5.40;;;14.20;99.90;;;;;;4904409;29;20454;-86
2022/12/31 01:21:12;;;;;;;65.17;6.70;;;14.20;99.90;;;;;;4904334;29;20476;-85
2022/12/31 01:23:38;;;;;;;68.47;7.23;;;14.20;99.90;;;;;;4906225;29;20418;-85
2022/12/31 01:26:06;;;;;;;64.83;5.10;;;14.20;99.90;;;;;;4904453;29;20415;-85
2022/12/31 01:28:31;;;;;;;66.03;5.60;;;14.20;99.90;;;;;;4904030;29;20432;-85
2022/12/31 01:30:58;;;;;;;65.70;6.90;;;14.20;99.90;;;;;;4904229;29;20493;-85
2022/12/31 01:33:24;;;;;;;66.90;5.73;;;14.20;99.90;;;;;;4905642;29;20485;-86
2022/12/31 01:35:49;;;;;;;66.07;6.33;;;14.20;99.90;;;;;;4905082;29;20449;-86
2022/12/31 01:38:15;;;;;;;64.97;5.97;;;14.20;99.90;;;;;;4904759;29;20618;-85
2022/12/31 01:40:41;;;;;;;64.97;6.57;;;14.20;99.90;;;;;;4904271;29;20272;-86
2022/12/31 01:43:18;;;;;;;64.87;5.93;;;14.20;99.90;;;;;;4905281;29;20434;-86
2022/12/31 01:45:51;;;;;;;64.97;6.07;;;14.10;99.90;;;;;;4903690;29;20446;-85
2022/12/31 01:48:25;;;;;;;65.60;7.30;;;14.20;99.90;;;;;;4905107;29;20170;-87
2022/12/31 01:50:52;;;;;;;65.50;7.30;;;14.20;99.90;;;;;;4905127;29;20501;-86
2022/12/31 01:53:18;;;;;;;65.10;6.90;;;14.20;99.90;;;;;;4902890;29;20419;-86
2022/12/31 01:55:52;;;;;;;65.27;7.53;;;14.30;99.90;;;;;;4903818;29;20421;-86
2022/12/31 01:58:24;;;;;;;65.15;6.07;;;14.30;99.90;;;;;;4904364;29;20454;-86
2022/12/31 02:00:51;;;;;;;64.50;5.43;;;14.30;99.90;;;;;;4904750;29;20186;-86
2022/12/31 02:03:19;;;;;;;64.63;5.90;;;14.30;99.90;;;;;;4904931;29;20406;-86
2022/12/31 02:05:58;;;;;;;64.80;6.53;;;14.30;99.90;;;;;;4904861;29;20410;-86
2022/12/31 02:08:24;;;;;;;65.40;7.23;;;14.20;99.90;;;;;;4905555;29;20394;-86
2022/12/31 02:10:49;;;;;;;64.87;5.63;;;14.30;99.90;;;;;;4904438;29;20598;-86
2022/12/31 02:13:15;;;;;;;64.67;5.90;;;14.30;99.90;;;;;;4904964;29;20252;-86
2022/12/31 02:15:57;;;;;;;64.97;6.80;;;14.30;99.90;;;;;;4904009;29;20174;-86
2022/12/31 02:18:36;;;;;;;64.57;5.17;;;14.30;99.90;;;;;;4904169;29;20445;-86
2022/12/31 02:21:24;;;;;;;64.77;6.37;;;14.30;99.90;;;;;;4903883;29;20438;-86
2022/12/31 02:24:21;;;;;;;64.90;5.93;;;14.30;99.90;;;;;;4902433;29;20921;-85
2022/12/31 02:26:59;;;;;;;65.20;5.40;;;14.30;99.90;;;;;;4905374;29;20277;-86
2022/12/31 02:30:02;;;;;;;64.37;6.20;;;14.30;99.90;;;;;;4910720;29;20434;-86
2022/12/31 02:32:51;;;;;;;64.57;5.30;;;14.40;99.90;;;;;;4916550;29;20410;-83
2022/12/31 02:35:26;;;;;;;64.63;5.70;;;14.50;99.90;;;;;;4903044;29;20610;-84
2022/12/31 02:38:03;;;;;;;64.70;6.07;;;14.50;99.90;;;;;;4904432;29;20882;-85
2022/12/31 02:40:32;;;;;;;64.43;5.50;;;14.50;99.90;;;;;;4903581;29;20442;-86
2022/12/31 02:42:57;;;;;;;64.20;4.93;;;14.50;99.90;;;;;;4905763;29;20425;-86
2022/12/31 02:45:48;;;;;;;64.07;4.37;;;14.60;99.90;;;;;;4905044;29;20489;-86
2022/12/31 02:48:25;;;;;;;63.85;3.53;;;14.70;99.90;;;;;;4905160;29;20163;-86
2022/12/31 02:51:05;;;;;;;63.70;3.90;;;14.70;99.90;;;;;;4904330;29;20569;-87
2022/12/31 02:53:34;;;;;;;67.17;3.20;;;14.80;99.90;;;;;;4904785;29;20429;-86
2022/12/31 02:56:26;;;;;;;64.27;3.93;;;14.90;99.90;;;;;;4903274;29;20411;-86
2022/12/31 03:04:36;;;;;;;63.37;3.37;;;14.90;99.90;;;;;;4907151;29;20382;-86
2022/12/31 03:07:16;;;;;;;63.87;3.00;;;14.90;99.90;;;;;;4906977;29;20410;-86
2022/12/31 03:09:42;;;;;;;63.90;3.67;;;14.80;99.90;;;;;;4908053;29;20190;-86
2022/12/31 03:14:54;;;;;;;63.17;3.50;;;14.80;99.90;;;;;;4907650;29;20165;-85
2022/12/31 03:17:20;;;;;;;63.97;3.93;;;14.70;99.90;;;;;;4907820;29;20402;-86
2022/12/31 03:23:01;;;;;;;64.10;4.30;;;14.80;99.90;;;;;;4907528;29;20166;-86
2022/12/31 03:25:39;;;;;;;63.77;3.80;;;14.70;99.90;;;;;;4906424;29;20509;-87
2022/12/31 03:28:11;;;;;;;64.00;4.10;;;14.70;99.90;;;;;;4906385;29;20422;-85
2022/12/31 03:30:40;;;;;;;63.97;4.13;;;14.70;99.90;;;;;;4907292;29;20485;-86
2022/12/31 03:33:06;;;;;;;64.27;4.00;;;14.70;99.90;;;;;;4907941;29;20410;-86
2022/12/31 03:35:34;;;;;;;63.47;3.20;;;14.80;99.90;;;;;;4908094;29;20442;-85
2022/12/31 03:38:00;;;;;;;64.10;4.47;;;14.80;99.90;;;;;;4906625;29;20458;-86
2022/12/31 03:40:27;;;;;;;65.40;4.40;;;14.80;99.90;;;;;;4905213;29;20444;-86
2022/12/31 03:42:53;;;;;;;63.90;4.60;;;14.70;99.90;;;;;;4906139;29;20426;-86
2022/12/31 03:45:19;;;;;;;63.90;4.07;;;14.70;99.90;;;;;;4906560;29;20409;-86
2022/12/31 03:47:45;;;;;;;64.07;3.83;;;14.70;99.90;;;;;;4905747;29;20429;-85
2022/12/31 03:50:13;;;;;;;64.17;3.80;;;14.80;99.90;;;;;;4905907;29;20422;-86
2022/12/31 03:52:39;;;;;;;64.23;3.20;;;14.80;99.90;;;;;;4905913;29;20166;-85
2022/12/31 03:55:05;;;;;;;64.23;4.13;;;14.80;99.90;;;;;;4905486;29;20540;-86
2022/12/31 03:57:31;;;;;;;63.90;4.60;;;14.80;99.90;;;;;;4904401;29;20184;-86
2022/12/31 03:59:57;;;;;;;63.87;4.00;;;14.70;99.90;;;;;;4904383;29;20462;-85
2022/12/31 04:02:23;;;;;;;63.67;3.50;;;14.70;99.90;;;;;;4905559;29;20751;-85
2022/12/31 04:04:49;;;;;;;63.70;3.47;;;14.70;99.90;;;;;;4905232;29;20770;-85
2022/12/31 04:07:15;;;;;;;64.07;4.03;;;14.70;99.90;;;;;;4906052;29;20410;-86
2022/12/31 04:09:40;;;;;;;63.97;3.57;;;14.70;99.90;;;;;;4906072;29;20190;-86
2022/12/31 04:12:07;;;;;;;63.70;3.90;;;14.70;99.90;;;;;;4904918;29;20193;-86
2022/12/31 04:14:32;;;;;;;64.10;3.40;;;14.70;99.90;;;;;;4905321;29;20217;-85
2022/12/31 04:16:58;;;;;;;64.03;3.80;;;14.80;99.90;;;;;;4904062;29;20422;-85
2022/12/31 04:19:29;;;;;;;63.67;3.00;;;14.80;99.90;;;;;;4904420;29;20206;-85
2022/12/31 04:21:55;;;;;;;64.87;3.60;;;14.80;99.90;;;;;;4905472;29;20166;-85
2022/12/31 04:24:21;;;;;;;63.70;3.10;;;14.80;99.90;;;;;;4904605;29;20786;-85
2022/12/31 04:26:46;;;;;;;63.67;3.73;;;14.80;99.90;;;;;;4905624;29;20249;-85
2022/12/31 04:29:12;;;;;;;63.93;3.80;;;14.80;99.90;;;;;;4905593;29;20173;-86
2022/12/31 04:31:38;;;;;;;64.10;3.43;;;14.80;99.90;;;;;;4904530;29;20650;-85
2022/12/31 04:34:06;;;;;;;64.50;3.70;;;14.90;99.90;;;;;;4904773;29;20180;-86
2022/12/31 04:36:32;;;;;;;63.87;3.50;;;14.90;99.90;;;;;;4864849;29;1153635;-85
2022/12/31 04:38:58;;;;;;;63.83;3.50;;;14.90;99.90;;;;;;4905665;29;20992;-86
2022/12/31 04:41:25;;;;;;;68.40;3.67;;;15.00;99.90;;;;;;4905458;29;20445;-86
2022/12/31 04:43:56;;;;;;;63.87;3.33;;;15.10;99.90;;;;;;4906115;29;20178;-86
2022/12/31 04:46:28;;;;;;;63.80;3.47;;;15.20;99.90;;;;;;4906581;29;20948;-86
2022/12/31 04:48:54;;;;;;;64.00;3.67;;;15.30;99.90;;;;;;4905224;29;20445;-86
2022/12/31 04:51:21;;;;;;;63.93;3.60;;;15.30;99.90;;;;;;4906107;29;20430;-86
2022/12/31 04:53:47;;;;;;;64.07;3.70;;;15.30;99.90;;;;;;4906429;29;20414;-87
2022/12/31 04:56:13;;;;;;;66.20;4.53;;;15.30;99.90;;;;;;4905375;29;20949;-85
2022/12/31 04:58:39;;;;;;;65.30;3.27;;;15.30;99.90;;;;;;4905668;29;20486;-86
2022/12/31 05:01:06;;;;;;;65.00;3.83;;;15.20;99.90;;;;;;4905787;29;20437;-85
2022/12/31 05:03:33;;;;;;;64.03;4.07;;;15.30;99.90;;;;;;4906844;29;20407;-85
2022/12/31 05:06:07;;;;;;;63.77;4.30;;;15.30;99.90;;;;;;4904930;29;20551;-85
2022/12/31 05:08:33;;;;;;;66.90;3.77;;;15.40;99.90;;;;;;4905230;29;20402;-87
2022/12/31 05:10:59;;;;;;;65.80;4.83;;;15.40;99.90;;;;;;4906463;29;20426;-86
2022/12/31 05:13:25;;;;;;;66.00;5.60;;;15.50;99.90;;;;;;4906540;29;20581;-86
2022/12/31 05:15:51;;;;;;;64.90;4.57;;;15.40;99.90;;;;;;4906927;29;20218;-86
2022/12/31 05:18:17;;;;;;;65.00;5.47;;;15.50;99.90;;;;;;4905882;29;20458;-86
2022/12/31 05:20:43;;;;;;;64.70;5.10;;;15.50;99.90;;;;;;4906306;29;20422;-85
2022/12/31 05:23:09;;;;;;;64.17;3.43;;;15.70;99.90;;;;;;4906002;29;20414;-86
2022/12/31 05:25:34;;;;;;;65.40;4.33;;;15.70;99.90;;;;;;4905472;29;20198;-86
2022/12/31 05:28:00;;;;;;;66.80;3.73;;;15.70;99.90;;;;;;4904819;29;20418;-86
2022/12/31 05:30:26;;;;;;;64.63;3.63;;;15.60;99.90;;;;;;4905711;29;20226;-86
2022/12/31 05:32:51;;;;;;;65.40;3.30;;;15.70;99.90;;;;;;4905715;29;20181;-86
2022/12/31 05:35:17;;;;;;;66.20;3.60;;;15.70;99.90;;;;;;4906268;29;20174;-86
2022/12/31 05:37:43;;;;;;;66.90;3.53;;;15.60;99.90;;;;;;4905733;29;20226;-85
2022/12/31 05:40:10;;;;;;;66.63;3.60;;;15.70;99.90;;;;;;4905921;29;20434;-86
2022/12/31 05:42:35;;;;;;;65.17;3.50;;;15.70;99.90;;;;;;4905779;29;20414;-85
2022/12/31 05:45:01;;;;;;;64.87;3.93;;;15.70;99.90;;;;;;4904456;29;20414;-86
2022/12/31 05:47:27;;;;;;;68.17;3.67;;;15.70;99.90;;;;;;4905798;29;20166;-88
2022/12/31 05:49:53;;;;;;;65.60;3.97;;;15.80;99.90;;;;;;4905530;29;20189;-86
2022/12/31 05:52:19;;;;;;;66.77;3.90;;;15.90;99.90;;;;;;4904735;29;20410;-86
2022/12/31 05:54:45;;;;;;;65.00;3.40;;;15.80;99.90;;;;;;4906309;29;20174;-86
2022/12/31 05:57:10;;;;;;;67.90;4.20;;;15.90;99.90;;;;;;4906013;29;20399;-86
2022/12/31 05:59:36;;;;;;;68.20;3.93;;;15.80;99.90;;;;;;4904343;29;20234;-85
2022/12/31 06:02:02;;;;;;;64.07;4.30;;;15.90;99.90;;;;;;4904167;29;20170;-86
2022/12/31 06:04:27;;;;;;;66.93;4.40;;;15.90;99.90;;;;;;4905848;29;20637;-86
2022/12/31 06:06:53;;;;;;;63.57;3.70;;;15.90;99.90;;;;;;4905172;29;20261;-86
2022/12/31 06:09:19;;;;;;;65.37;3.83;;;15.90;99.90;;;;;;4905757;29;20177;-85
2022/12/31 06:11:45;;;;;;;68.53;4.10;;;15.90;99.90;;;;;;4905850;29;20170;-86
2022/12/31 06:14:11;;;;;;;64.20;3.70;;;15.80;99.90;;;;;;4903756;29;20206;-86
2022/12/31 06:16:38;;;;;;;64.50;3.83;;;15.80;99.90;;;;;;4905033;29;20418;-86
2022/12/31 06:19:04;;;;;;;64.30;4.40;;;15.80;99.90;;;;;;4904830;29;20454;-86
2022/12/31 06:21:30;;;;;;;66.30;6.23;;;15.80;99.90;;;;;;4904851;29;20931;-85
2022/12/31 06:23:56;;;;;;;65.47;3.57;;;15.80;99.90;;;;;;4904754;29;20631;-85
2022/12/31 06:26:21;;;;;;;64.17;3.73;;;15.70;99.90;;;;;;4904080;29;20241;-85
2022/12/31 06:28:47;;;;;;;64.63;4.13;;;15.70;99.90;;;;;;4903426;29;20269;-85
2022/12/31 06:31:13;;;;;;;64.87;4.30;;;15.80;99.90;;;;;;4902920;29;20198;-87
2022/12/31 06:33:39;;;;;;;64.57;3.83;;;15.70;99.90;;;;;;4903552;29;20174;-86
2022/12/31 06:36:07;;;;;;;63.87;3.73;;;15.80;99.90;;;;;;4904891;29;20509;-86
2022/12/31 06:38:37;;;;;;;66.17;4.00;;;15.90;99.90;;;;;;4904069;29;20490;-85
2022/12/31 06:41:07;;;;;;;65.73;4.10;;;15.90;99.90;;;;;;4908368;29;20521;-86
2022/12/31 06:43:36;;;;;;;63.60;3.70;;;15.90;99.90;;;;;;4909061;29;20406;-86
2022/12/31 06:46:03;;;;;;;65.00;4.17;;;15.90;99.90;;;;;;4909024;29;20402;-87
2022/12/31 06:48:29;;;;;;;65.40;4.13;;;15.90;99.90;;;;;;4907293;29;20414;-87
2022/12/31 06:50:55;;;;;;;69.20;3.93;;;15.90;99.90;;;;;;4908277;29;20444;-86
2022/12/31 06:53:21;;;;;;;64.87;4.37;;;16.00;99.90;;;;;;4907367;29;20180;-86
2022/12/31 06:55:48;;;;;;;68.73;3.67;;;16.00;99.90;;;;;;4907332;29;20184;-86
2022/12/31 06:58:15;;;;;;;67.40;4.37;;;16.00;99.90;;;;;;4909037;29;20460;-86
2022/12/31 07:00:59;;;;;;;64.30;3.87;;;16.00;99.90;;;;;;4908272;29;20429;-86
2022/12/31 07:03:32;;;;;;;67.60;4.60;;;15.90;99.90;;;;;;4907964;29;20411;-86
2022/12/31 07:06:13;;;;;;;63.77;3.80;;;16.00;99.90;;;;;;4907493;29;20402;-86
2022/12/31 07:08:51;;;;;;;64.17;3.70;;;16.00;99.90;;;;;;4907597;29;20409;-86
2022/12/31 07:11:29;;;;;;;64.07;4.03;;;15.90;99.90;;;;;;4908242;29;20425;-86
2022/12/31 07:14:04;;;;;;;64.37;4.60;;;16.00;99.90;;;;;;4907497;29;20425;-86
2022/12/31 07:16:51;;;;;;;64.43;3.33;;;16.00;99.90;;;;;;4906295;29;20402;-85
2022/12/31 07:19:46;;;;;;;66.30;4.17;;;16.00;99.90;;;;;;4907448;29;20838;-85
2022/12/31 07:22:15;;;;;;;64.90;3.77;;;16.00;99.90;;;;;;4908769;29;20394;-85
2022/12/31 07:24:42;;;;;;;67.93;3.73;;;16.00;99.90;;;;;;4908162;29;20424;-86
2022/12/31 07:27:18;;;;;;;66.17;4.53;;;16.00;99.90;;;;;;4907673;29;20414;-85
2022/12/31 07:30:03;;;;;;;64.90;4.00;;;16.00;99.90;;;;;;4906559;29;20456;-85
2022/12/31 07:32:34;;;;;;;64.93;3.10;;;16.00;99.90;;;;;;4907800;29;20426;-85
2022/12/31 07:35:25;;;;;;;68.20;3.40;;;16.00;99.90;;;;;;4908776;29;20406;-86
2022/12/31 07:38:05;;;;;;;63.90;3.50;;;16.00;99.90;;;;;;4906760;29;20532;-86
2022/12/31 07:41:03;;;;;;;63.77;3.83;;;15.90;99.90;;;;;;4907814;29;20517;-86
2022/12/31 07:43:49;;;;;;;65.73;3.93;;;16.00;99.90;;;;;;4907458;29;20383;-85
2022/12/31 07:46:34;;;;;;;65.00;3.90;;;16.00;99.90;;;;;;4906578;29;20418;-85
2022/12/31 07:49:00;;;;;;;64.80;3.33;;;16.00;99.90;;;;;;4906844;29;20414;-86
2022/12/31 07:51:26;;;;;;;63.80;3.10;;;16.10;99.90;;;;;;4906857;29;20429;-86
2022/12/31 07:53:52;;;;;;;65.13;2.93;;;16.20;99.90;;;;;;4907855;29;20502;-85
2022/12/31 07:56:18;;;;;;;65.60;4.37;;;16.10;99.90;;;;;;4906999;29;20443;-83
2022/12/31 07:59:06;;;;;;;63.87;3.40;;;16.10;99.90;;;;;;4905789;29;20675;-85
2022/12/31 08:01:55;;;;;;;65.10;3.17;;;16.10;99.90;;;;;;4906376;29;20219;-86
2022/12/31 08:04:23;;;;;;;64.20;3.07;;;16.00;99.90;;;;;;4906697;29;20414;-85
2022/12/31 08:07:20;;;;;;;65.37;2.90;;;16.10;99.90;;;;;;4905365;29;20416;-85
2022/12/31 08:10:26;;;;;;;63.73;3.17;;;16.10;99.90;;;;;;4905758;29;20442;-85
2022/12/31 08:13:04;;;;;;;65.07;3.30;;;16.10;99.90;;;;;;4906217;29;20423;-85
2022/12/31 08:15:30;;;;;;;64.70;3.03;;;16.00;99.90;;;;;;4906204;29;20425;-85
2022/12/31 08:17:56;;;;;;;64.33;3.80;;;16.10;99.90;;;;;;4907286;29;20446;-86
2022/12/31 08:20:24;;;;;;;64.43;3.60;;;16.20;99.90;;;;;;4908173;29;20827;-86
2022/12/31 08:23:11;;;;;;;64.13;3.73;;;16.20;99.90;;;;;;4908109;29;20497;-86
2022/12/31 08:25:55;;;;;;;64.77;4.27;;;16.30;99.90;;;;;;4907565;29;20384;-85
2022/12/31 08:28:44;;;;;;;64.90;3.50;;;16.30;99.90;;;;;;4907776;29;20414;-86
2022/12/31 08:31:19;;;;;;;67.07;4.63;;;16.30;99.90;;;;;;4900735;29;20431;-86
2022/12/31 08:34:18;;;;;;;64.57;3.43;;;16.30;99.90;;;;;;4907038;29;20406;-85
2022/12/31 08:37:02;;;;;;;65.00;4.37;;;16.20;99.90;;;;;;4907523;29;20457;-85
2022/12/31 08:39:48;;;;;;;63.60;3.60;;;16.20;99.90;;;;;;4905683;29;20461;-85
2022/12/31 08:42:26;;;;;;;65.10;3.30;;;16.30;99.90;;;;;;4907077;29;20382;-83
2022/12/31 08:45:23;;;;;;;67.27;4.47;;;16.30;99.90;;;;;;4905997;29;20763;-85
2022/12/31 08:48:00;;;;;;;66.17;4.27;;;16.30;99.90;;;;;;4903445;29;20443;-85
2022/12/31 08:50:26;;;;;;;66.20;4.30;;;16.30;99.90;;;;;;4906783;29;20431;-85
2022/12/31 08:52:52;;;;;;;64.20;3.57;;;16.30;99.90;;;;;;4906289;29;20819;-85
2022/12/31 08:55:19;;;;;;;67.60;5.30;;;16.40;99.90;;;;;;4906862;29;20447;-86
2022/12/31 08:57:45;;;;;;;64.77;4.90;;;16.40;99.90;;;;;;4905649;29;20510;-85
2022/12/31 09:00:14;;;;;;;65.43;4.73;;;16.40;99.90;;;;;;4905386;29;20462;-86
2022/12/31 09:02:54;;;;;;;68.60;5.00;;;16.40;99.90;;;;;;4906611;29;20725;-86
2022/12/31 09:05:24;;;;;;;66.70;4.80;;;16.40;99.90;;;;;;4906802;29;20428;-86
2022/12/31 09:08:02;;;;;;;64.93;6.27;;;16.50;99.90;;;;;;4906769;29;20766;-86
2022/12/31 09:11:08;;;;;;;65.30;5.30;;;16.60;99.90;;;;;;4907229;29;20427;-85
2022/12/31 09:14:00;;;;;;;65.47;5.70;;;16.60;99.90;;;;;;4907090;29;20417;-85
2022/12/31 09:16:57;;;;;;;65.37;5.40;;;16.60;99.90;;;;;;4891065;29;20449;-86
2022/12/31 09:19:23;;;;;;;68.10;5.07;;;16.70;99.90;;;;;;4906719;29;20514;-85
2022/12/31 09:21:48;;;;;;;65.67;4.90;;;16.70;99.90;;;;;;4905623;29;20410;-86
2022/12/31 09:24:15;;;;;;;66.60;5.40;;;16.70;99.90;;;;;;4905658;29;20176;-85
2022/12/31 09:26:58;;;;;;;65.27;6.33;;;16.70;99.90;;;;;;4906035;29;20167;-86
2022/12/31 09:29:37;;;;;;;69.63;6.83;;;16.70;99.90;;;;;;4906420;29;20940;-85
2022/12/31 09:32:21;;;;;;;72.00;6.97;;;16.80;99.90;;;;;;4905518;29;20498;-86
2022/12/31 09:34:52;;;;;;;65.47;5.33;;;16.80;99.90;;;;;;4905233;29;20410;-86
2022/12/31 09:37:37;;;;;;;66.00;5.37;;;16.80;99.90;;;;;;4905978;29;20462;-86
2022/12/31 09:40:52;;;;;;;67.90;5.87;;;17.00;99.90;;;;;;4906043;29;21035;-86
2022/12/31 09:43:40;;;;;;;66.47;7.07;;;17.00;99.90;;;;;;4900799;29;20412;-86
2022/12/31 09:46:17;;;;;;;68.57;6.67;;;17.00;99.90;;;;;;4905023;29;20401;-86
2022/12/31 09:48:53;;;;;;;67.30;6.57;;;17.00;99.90;;;;;;4906099;29;20819;-86
2022/12/31 09:51:31;;;;;;;66.77;8.17;;;17.00;99.90;;;;;;4904725;29;20439;-85
2022/12/31 09:54:16;;;;;;;66.17;7.90;;;17.10;98.10;;;;;;4905194;29;20499;-86
2022/12/31 09:56:46;;;;;;;68.77;6.83;;;17.10;95.70;;;;;;4906809;29;20402;-85
2022/12/31 09:59:59;;;;;;;66.20;7.37;;;17.10;96.50;;;;;;4904686;29;20443;-85
2022/12/31 10:03:01;;;;;;;67.40;8.07;;;17.10;96.00;;;;;;4898075;29;20422;-85
2022/12/31 10:05:41;;;;;;;67.00;7.27;;;17.10;95.00;;;;;;4905772;29;20387;-86
2022/12/31 10:08:48;;;;;;;65.97;8.10;;;17.20;95.50;;;;;;4903479;29;20479;-86
2022/12/31 10:11:51;;;;;;;65.30;7.00;;;17.20;93.20;;;;;;4905829;29;20450;-85
2022/12/31 10:15:13;;;;;;;65.57;7.00;;;17.20;95.70;;;;;;4907613;29;20491;-84
2022/12/31 10:18:36;;;;;;;67.30;6.90;;;17.30;93.00;;;;;;4888220;29;20516;-84
2022/12/31 10:21:02;;;;;;;66.37;7.70;;;17.30;92.10;;;;;;4874824;29;20523;-85
2022/12/31 10:23:45;;;;;;;66.40;7.33;;;17.30;92.20;;;;;;4873434;29;20458;-85
2022/12/31 10:26:35;;;;;;;66.87;7.07;;;17.30;92.90;;;;;;4892477;29;20180;-85
2022/12/31 10:29:37;;;;;;;66.93;6.90;;;17.40;91.10;;;;;;4909705;29;20391;-84
2022/12/31 10:32:43;;;;;;;67.60;6.73;;;17.50;91.60;;;;;;4908962;29;20407;-85
2022/12/31 10:35:34;;;;;;;66.17;7.77;;;17.50;91.10;;;;;;4907944;29;20421;-84
2022/12/31 10:40:45;;;;;;;68.90;7.20;;;17.40;93.20;;;;;;4913674;29;20486;-85
2022/12/31 10:43:38;;;;;;;67.27;9.70;;;17.40;91.80;;;;;;4908797;29;20381;-85
2022/12/31 10:46:37;;;;;;;66.73;7.63;;;17.50;90.30;;;;;;4891834;29;20417;-85
2022/12/31 10:49:41;;;;;;;68.73;7.40;;;17.50;90.90;;;;;;4908770;29;20390;-85
2022/12/31 10:52:34;;;;;;;67.17;7.27;;;17.50;87.40;;;;;;4908446;29;20414;-85
2022/12/31 10:55:02;;;;;;;69.67;7.90;;;17.50;84.70;;;;;;4907850;29;20413;-85
2022/12/31 10:57:55;;;;;;;65.13;6.47;;;17.50;84.80;;;;;;4891368;29;20421;-85
2022/12/31 11:00:22;;;;;;;68.87;8.27;;;17.50;84.40;;;;;;4908460;29;20453;-85
2022/12/31 11:02:48;;;;;;;71.50;9.37;;;17.50;81.80;;;;;;4908843;29;20900;-86
2022/12/31 11:05:56;;;;;;;65.83;7.10;;;17.60;77.00;;;;;;4892429;29;20476;-84
2022/12/31 11:08:40;;;;;;;69.63;8.50;;;17.60;78.20;;;;;;4909843;29;20212;-86
2022/12/31 11:11:27;;;;;;;65.70;5.90;;;17.60;76.50;;;;;;4891527;29;20437;-86
2022/12/31 11:14:16;;;;;;;67.70;9.60;;;17.60;77.50;;;;;;4908895;29;20395;-87
2022/12/31 11:17:15;;;;;;;77.93;7.37;;;17.60;74.20;;;;;;4886866;29;20425;-86
2022/12/31 11:20:22;;;;;;;67.97;8.03;;;17.60;76.20;;;;;;4908378;29;20526;-86
2022/12/31 11:22:56;;;;;;;69.93;8.13;;;17.60;72.80;;;;;;4850625;29;20433;-86
2022/12/31 11:25:28;;;;;;;69.90;6.80;;;17.60;76.40;;;;;;4900577;29;20428;-87
2022/12/31 11:28:21;;;;;;;66.07;5.33;;;17.70;68.00;;;;;;4891871;29;20476;-86
2022/12/31 11:31:22;;;;;;;66.60;6.90;;;17.70;69.20;;;;;;4891456;29;20498;-86
2022/12/31 11:34:23;;;;;;;66.10;6.90;;;17.70;64.60;;;;;;4908938;29;20417;-85
2022/12/31 11:37:21;;;;;;;66.87;6.27;;;17.70;71.50;;;;;;4908088;29;20416;-85
2022/12/31 11:39:52;;;;;;;69.67;7.47;;;17.60;71.60;;;;;;4908207;29;20468;-86
2022/12/31 11:43:01;;;;;;;67.10;6.43;;;17.60;72.00;;;;;;4908213;29;20408;-85
2022/12/31 11:45:58;;;;;;;66.77;8.50;;;17.60;72.20;;;;;;4890186;29;20858;-85
2022/12/31 11:48:51;;;;;;;68.70;8.00;;;17.40;76.70;;;;;;4890849;29;20421;-84
2022/12/31 11:51:38;;;;;;;67.83;6.73;;;17.40;80.00;;;;;;4906550;29;21025;-84
2022/12/31 11:54:39;;;;;;;67.77;8.90;;;17.30;83.20;;;;;;4890662;29;20428;-85
2022/12/31 11:57:34;;;;;;;68.13;7.80;;;17.20;90.10;;;;;;4860027;29;20455;-86
2022/12/31 12:00:22;;;;;;;71.97;9.10;;;17.20;90.10;;;;;;4892569;29;20805;-86
2022/12/31 12:02:55;;;;;;;67.47;9.97;;;17.20;90.60;;;;;;4892012;29;20420;-86
2022/12/31 12:06:13;;;;;;;67.93;9.40;;;17.20;88.30;;;;;;4891929;29;20403;-85
2022/12/31 12:12:34;;;;;;;71.10;11.87;;;17.10;91.70;;;;;;4868989;29;21021;-86
2022/12/31 12:15:12;;;;;;;70.97;8.13;;;17.10;93.00;;;;;;4845085;29;20426;-86
2022/12/31 12:18:07;;;;;;;68.93;12.10;;;17.20;91.70;;;;;;4853241;29;20430;-86
2022/12/31 12:20:38;;;;;;;68.57;10.20;;;17.10;90.30;;;;;;4868893;29;20549;-85
2022/12/31 12:23:48;;;;;;;66.40;9.10;;;17.00;92.80;;;;;;4889766;29;20424;-86
2022/12/31 12:27:17;;;;;;;;;;;;;;;;;;;;;
2022/12/31 12:29:43;;;;;;;67.57;7.93;;;17.20;90.80;;;;;;4848414;29;20572;-85
2022/12/31 12:33:23;;;;;;;71.80;10.07;;;17.20;90.60;;;;;;4909188;29;20452;-86
2022/12/31 12:35:32;;;;;;;69.10;9.33;;;17.20;90.70;;;;;;4897263;29;20625;-86
2022/12/31 12:38:07;;;;;;;69.63;11.23;;;17.20;89.30;;;;;;4890926;29;20424;-86
2022/12/31 12:40:34;;;;;;;71.70;10.10;;;17.20;90.20;;;;;;4890275;29;20523;-86
2022/12/31 12:43:03;;;;;;;68.17;11.87;;;17.20;90.60;;;;;;4892531;29;20487;-86
2022/12/31 12:45:46;;;;;;;67.93;7.67;;;17.30;86.50;;;;;;4908084;29;20477;-85
2022/12/31 12:48:37;;;;;;;68.87;9.53;;;17.30;87.20;;;;;;4908288;29;20455;-86
2022/12/31 12:51:19;;;;;;;71.00;14.43;;;17.40;92.30;;;;;;4889874;29;20539;-83
2022/12/31 12:54:29;;;;;;;69.50;10.17;;;17.30;89.70;;;;;;4894696;29;20416;-84
2022/12/31 12:57:12;;;;;;;73.73;9.43;;;17.30;89.00;;;;;;4907938;29;20425;-84
2022/12/31 12:59:50;;;;;;;67.60;7.23;;;17.20;90.30;;;;;;4894822;29;20445;-85
2022/12/31 13:02:49;;;;;;;71.00;10.03;;;17.30;88.40;;;;;;4909894;29;20429;-85
2022/12/31 13:05:42;;;;;;;67.93;8.43;;;17.40;81.30;;;;;;4893463;29;20408;-84
2022/12/31 13:08:18;;;;;;;66.60;7.80;;;17.30;84.30;;;;;;4889523;29;20535;-85
2022/12/31 13:11:24;;;;;;;;;;;;;;;;;;;;;
2022/12/31 13:14:44;;;;;;;68.00;8.27;;;17.30;76.50;;;;;;4908371;29;20458;-84
2022/12/31 13:17:56;;;;;;;66.63;6.23;;;17.40;73.90;;;;;;4866063;29;20436;-86
2022/12/31 13:21:01;;;;;;;67.37;8.17;;;17.40;76.50;;;;;;4908043;29;20433;-84
2022/12/31 13:23:37;;;;;;;66.67;7.20;;;17.40;78.80;;;;;;4889879;29;20446;-85
2022/12/31 13:26:52;;;;;;;68.93;9.77;;;17.30;83.40;;;;;;4906534;29;20436;-84
2022/12/31 13:30:02;;;;;;;68.37;12.57;;;17.20;95.60;;;;;;4905863;29;20457;-84
2022/12/31 13:33:08;;;;;;;69.77;12.27;;;17.10;99.90;;;;;;4906088;29;20912;-86
2022/12/31 13:35:53;;;;;;;67.67;9.97;;;16.90;99.90;;;;;;4905733;29;20399;-84
2022/12/31 13:38:18;;;;;;;67.93;11.00;;;16.80;99.90;;;;;;4905794;29;20848;-85
2022/12/31 13:40:56;;;;;;;70.33;9.80;;;16.70;99.90;;;;;;4904926;29;20465;-85
2022/12/31 13:43:31;;;;;;;69.37;9.97;;;16.70;99.90;;;;;;4888767;29;20183;-86
2022/12/31 13:46:25;;;;;;;67.10;9.80;;;16.70;99.90;;;;;;4906097;29;20411;-85